Time;durP1;ratioP1;P1;durP2;ratioP2;P2;SDS_P1;SDS_P2;PMS_P1;PMS_P2;Temp;Humidity;BMP_temperature;BMP_pressure;BME280_temperature;BME280_humidity;BME280_pressure;Samples;Min_cycle;Max_cycle;Signal;HPM_P1;HPM_P2
2022/10/05 00:01:02;;;;;;;3.33;2.60;;;;;;;;;;5052504;28;20218;-42
2022/10/05 00:03:32;;;;;;;3.27;2.43;;;;;;;;;;5048341;28;20222;-44
2022/10/05 00:06:00;;;;;;;4.70;2.67;;;;;;;;;;5036084;28;20206;-43
2022/10/05 00:08:30;;;;;;;2.90;2.70;;;;;;;;;;5052502;28;20202;-44
2022/10/05 00:10:57;;;;;;;2.90;2.70;;;;;;;;;;5042567;28;20309;-39
2022/10/05 00:13:25;;;;;;;3.30;2.67;;;;;;;;;;5042274;28;20198;-40
2022/10/05 00:15:58;;;;;;;3.43;3.07;;;;;;;;;;5047147;28;20208;-42
2022/10/05 00:18:27;;;;;;;3.97;2.73;;;;;;;;;;5034853;28;20203;-39
2022/10/05 00:20:55;;;;;;;3.60;3.30;;;;;;;;;;5044098;28;20229;-42
2022/10/05 00:23:25;;;;;;;4.47;2.93;;;;;;;;;;5052638;28;20217;-42
2022/10/05 00:25:52;;;;;;;3.20;2.90;;;;;;;;;;5041859;28;20211;-39
2022/10/05 00:28:23;;;;;;;5.03;3.70;;;;;;;;;;5044177;28;20210;-43
2022/10/05 00:30:50;;;;;;;5.73;4.00;;;;;;;;;;5044180;28;20222;-38
2022/10/05 00:33:18;;;;;;;3.80;3.40;;;;;;;;;;5044228;28;20202;-43
2022/10/05 00:35:45;;;;;;;4.63;3.37;;;;;;;;;;5056731;28;20209;-38
2022/10/05 00:38:12;;;;;;;4.10;2.97;;;;;;;;;;5036399;28;20305;-41
2022/10/05 00:40:43;;;;;;;3.30;3.00;;;;;;;;;;5035734;28;20231;-44
2022/10/05 00:43:22;;;;;;;4.33;3.07;;;;;;;;;;5047486;28;20229;-40
2022/10/05 00:45:51;;;;;;;2.83;2.63;;;;;;;;;;5042531;28;20190;-42
2022/10/05 00:48:25;;;;;;;4.93;3.00;;;;;;;;;;5047127;28;20202;-39
2022/10/05 00:51:02;;;;;;;5.67;2.90;;;;;;;;;;5045881;28;20231;-40
2022/10/05 00:53:33;;;;;;;3.40;3.10;;;;;;;;;;5035655;28;20197;-40
2022/10/05 00:56:03;;;;;;;4.10;3.47;;;;;;;;;;5035279;28;20215;-42
2022/10/05 00:58:37;;;;;;;3.43;2.67;;;;;;;;;;5050619;28;20198;-41
2022/10/05 01:01:07;;;;;;;3.80;2.87;;;;;;;;;;5037701;28;20226;-42
2022/10/05 01:03:40;;;;;;;5.43;2.60;;;;;;;;;;5047723;28;20213;-42
2022/10/05 01:06:11;;;;;;;3.40;2.90;;;;;;;;;;5038453;28;20200;-37
2022/10/05 01:08:42;;;;;;;4.60;3.07;;;;;;;;;;5056139;28;20197;-42
2022/10/05 01:11:12;;;;;;;4.10;3.00;;;;;;;;;;5037993;28;20229;-43
2022/10/05 01:13:44;;;;;;;3.80;3.30;;;;;;;;;;5036410;28;20199;-41
2022/10/05 01:16:15;;;;;;;3.07;2.70;;;;;;;;;;5047902;28;20278;-43
2022/10/05 01:18:48;;;;;;;2.67;2.47;;;;;;;;;;5045326;28;20206;-40
2022/10/05 01:21:18;;;;;;;3.30;2.77;;;;;;;;;;5039150;28;20224;-44
2022/10/05 01:24:04;;;;;;;3.97;2.53;;;;;;;;;;5055224;28;20238;-41
2022/10/05 01:26:44;;;;;;;3.77;2.50;;;;;;;;;;5053198;28;20210;-41
2022/10/05 01:29:15;;;;;;;2.53;2.33;;;;;;;;;;5042913;28;20209;-43
2022/10/05 01:31:45;;;;;;;3.90;2.40;;;;;;;;;;5038913;28;20289;-38
2022/10/05 01:34:16;;;;;;;5.60;2.40;;;;;;;;;;5050074;28;20207;-43
2022/10/05 01:36:46;;;;;;;5.33;2.30;;;;;;;;;;5045369;28;20209;-41
2022/10/05 01:39:16;;;;;;;4.13;2.60;;;;;;;;;;5054672;28;20190;-39
2022/10/05 01:41:47;;;;;;;2.70;2.30;;;;;;;;;;5041857;28;20205;-42
2022/10/05 01:57:11;;;;;;;2.70;2.50;;;;;;;;;;5063062;28;20233;-30
2022/10/05 01:59:45;;;;;;;2.57;2.33;;;;;;;;;;5054239;28;20245;-29
2022/10/05 02:02:13;;;;;;;3.03;2.73;;;;;;;;;;5057061;28;20669;-29
2022/10/05 02:04:42;;;;;;;6.33;2.20;;;;;;;;;;5060140;28;20237;-30
2022/10/05 02:07:13;;;;;;;2.53;1.97;;;;;;;;;;5065829;28;20197;-30
2022/10/05 02:09:44;;;;;;;2.93;2.20;;;;;;;;;;5074542;28;20226;-30
2022/10/05 02:12:14;;;;;;;2.90;2.20;;;;;;;;;;5064575;28;20198;-29
2022/10/05 02:14:43;;;;;;;2.40;2.20;;;;;;;;;;5070343;28;20293;-29
2022/10/05 02:17:14;;;;;;;4.83;3.00;;;;;;;;;;5064814;28;20216;-29
2022/10/05 02:19:42;;;;;;;2.93;2.47;;;;;;;;;;5067734;28;20650;-29
2022/10/05 02:22:12;;;;;;;2.97;2.50;;;;;;;;;;5074953;28;20209;-29
2022/10/05 02:24:41;;;;;;;2.20;2.00;;;;;;;;;;5074676;28;20321;-30
2022/10/05 02:27:11;;;;;;;2.70;2.20;;;;;;;;;;5070987;28;20206;-29
2022/10/05 02:29:43;;;;;;;3.63;2.50;;;;;;;;;;5062750;28;20583;-30
2022/10/05 02:32:12;;;;;;;4.03;2.77;;;;;;;;;;5059308;28;20204;-29
2022/10/05 02:34:40;;;;;;;2.43;2.23;;;;;;;;;;5058212;28;20202;-29
2022/10/05 02:37:13;;;;;;;3.47;2.70;;;;;;;;;;5073004;28;20205;-29
2022/10/05 02:39:51;;;;;;;2.80;2.43;;;;;;;;;;5073348;28;20228;-29
2022/10/05 02:42:22;;;;;;;5.17;2.93;;;;;;;;;;5068222;28;20200;-29
2022/10/05 02:44:58;;;;;;;3.87;3.40;;;;;;;;;;5065094;28;20280;-30
2022/10/05 02:47:32;;;;;;;3.10;2.80;;;;;;;;;;5063809;28;20213;-30
2022/10/05 02:50:01;;;;;;;7.10;2.63;;;;;;;;;;5070237;28;20221;-30
2022/10/05 02:52:32;;;;;;;6.63;3.00;;;;;;;;;;5067495;28;20239;-29
2022/10/05 02:55:02;;;;;;;7.83;3.13;;;;;;;;;;5072574;28;20193;-30
2022/10/05 02:57:32;;;;;;;5.50;2.60;;;;;;;;;;5072059;28;20209;-32
2022/10/05 03:00:05;;;;;;;5.63;2.60;;;;;;;;;;5053501;28;20253;-29
2022/10/05 03:02:34;;;;;;;3.53;2.57;;;;;;;;;;5052199;28;20212;-29
2022/10/05 03:05:06;;;;;;;2.77;2.57;;;;;;;;;;5065632;28;20212;-31
2022/10/05 03:07:35;;;;;;;2.50;2.30;;;;;;;;;;5062931;28;20200;-30
2022/10/05 03:10:06;;;;;;;2.50;2.30;;;;;;;;;;5072233;28;20312;-29
2022/10/05 03:12:43;;;;;;;2.97;2.43;;;;;;;;;;5066533;28;20820;-29
2022/10/05 03:15:16;;;;;;;3.17;2.43;;;;;;;;;;5062720;28;20208;-29
2022/10/05 03:17:47;;;;;;;4.60;2.90;;;;;;;;;;5051873;28;20198;-29
2022/10/05 03:20:22;;;;;;;3.00;2.70;;;;;;;;;;5060435;28;20687;-29
2022/10/05 03:22:51;;;;;;;5.67;2.63;;;;;;;;;;5053246;28;20190;-30
2022/10/05 03:25:28;;;;;;;2.47;2.20;;;;;;;;;;5063680;28;20211;-32
2022/10/05 03:27:59;;;;;;;3.97;3.20;;;;;;;;;;5066247;28;20208;-30
2022/10/05 03:30:31;;;;;;;7.53;2.60;;;;;;;;;;5058266;28;20218;-29
2022/10/05 03:33:03;;;;;;;2.60;2.40;;;;;;;;;;5058969;28;20209;-29
2022/10/05 03:35:32;;;;;;;3.30;3.00;;;;;;;;;;5070814;28;20665;-30
2022/10/05 03:38:06;;;;;;;6.43;2.97;;;;;;;;;;5072919;28;20205;-29
2022/10/05 03:40:37;;;;;;;6.17;2.70;;;;;;;;;;5072292;28;20217;-28
2022/10/05 03:43:12;;;;;;;4.90;2.70;;;;;;;;;;5053933;28;20231;-30
2022/10/05 03:45:46;;;;;;;8.47;2.80;;;;;;;;;;5064548;28;20281;-30
2022/10/05 03:48:15;;;;;;;2.57;2.37;;;;;;;;;;5060377;28;20204;-29
2022/10/05 03:50:46;;;;;;;2.93;2.53;;;;;;;;;;5067734;28;20316;-29
2022/10/05 03:53:17;;;;;;;3.40;3.10;;;;;;;;;;5070899;28;20197;-29
2022/10/05 03:55:46;;;;;;;3.00;2.37;;;;;;;;;;5072178;28;20209;-29
2022/10/05 03:58:20;;;;;;;4.00;2.67;;;;;;;;;;5058010;28;20206;-29
2022/10/05 04:00:52;;;;;;;2.73;2.50;;;;;;;;;;5071638;28;20213;-29
2022/10/05 04:03:22;;;;;;;3.00;2.70;;;;;;;;;;5059098;28;20708;-29
2022/10/05 04:05:50;;;;;;;2.53;2.33;;;;;;;;;;5071390;28;20206;-30
2022/10/05 04:08:21;;;;;;;2.73;2.17;;;;;;;;;;5058685;28;20419;-29
2022/10/05 04:10:50;;;;;;;4.33;2.50;;;;;;;;;;5072674;28;20256;-29
2022/10/05 04:13:19;;;;;;;4.50;2.40;;;;;;;;;;5063555;28;20350;-28
2022/10/05 04:15:50;;;;;;;2.33;2.13;;;;;;;;;;5059285;28;20202;-29
2022/10/05 04:18:24;;;;;;;3.13;2.50;;;;;;;;;;5062460;28;20223;-28
2022/10/05 04:20:54;;;;;;;2.90;2.40;;;;;;;;;;5065054;28;20270;-29
2022/10/05 04:23:26;;;;;;;2.57;2.37;;;;;;;;;;5076570;28;20209;-28
2022/10/05 04:25:54;;;;;;;2.93;2.30;;;;;;;;;;5059185;28;20746;-30
2022/10/05 04:28:25;;;;;;;3.53;2.13;;;;;;;;;;5064117;28;20205;-29
2022/10/05 04:30:53;;;;;;;2.37;2.00;;;;;;;;;;5066855;28;20718;-28
2022/10/05 04:33:22;;;;;;;2.90;2.27;;;;;;;;;;5059350;28;20198;-29
2022/10/05 04:35:56;;;;;;;2.77;2.23;;;;;;;;;;5057017;28;20215;-30
2022/10/05 04:38:28;;;;;;;3.50;2.30;;;;;;;;;;5073658;28;20464;-29
2022/10/05 04:41:04;;;;;;;4.00;3.70;;;;;;;;;;5070324;28;20316;-29
2022/10/05 04:43:37;;;;;;;4.00;3.60;;;;;;;;;;5065506;28;20209;-29
2022/10/05 04:46:14;;;;;;;3.43;3.17;;;;;;;;;;5066978;28;20698;-31
2022/10/05 04:48:47;;;;;;;3.37;3.10;;;;;;;;;;5063984;28;20267;-30
2022/10/05 04:51:21;;;;;;;4.90;4.47;;;;;;;;;;5068106;28;20266;-29
2022/10/05 04:53:52;;;;;;;3.57;3.33;;;;;;;;;;5075392;28;20185;-29
2022/10/05 04:56:20;;;;;;;4.43;3.43;;;;;;;;;;5067602;28;20213;-30
2022/10/05 04:58:58;;;;;;;3.57;3.23;;;;;;;;;;5074699;28;20197;-29
2022/10/05 05:01:34;;;;;;;3.90;3.60;;;;;;;;;;5054719;28;20309;-30
2022/10/05 05:04:09;;;;;;;3.07;2.87;;;;;;;;;;5070315;28;20228;-30
2022/10/05 05:06:40;;;;;;;3.80;3.23;;;;;;;;;;5065805;28;20283;-30
2022/10/05 05:09:24;;;;;;;4.10;3.10;;;;;;;;;;5075014;28;20564;-29
2022/10/05 05:12:02;;;;;;;3.30;2.90;;;;;;;;;;5067581;28;20202;-30
2022/10/05 05:14:44;;;;;;;5.10;2.80;;;;;;;;;;5069025;28;20233;-29
2022/10/05 05:17:18;;;;;;;7.27;2.63;;;;;;;;;;5055697;28;20206;-28
2022/10/05 05:19:51;;;;;;;5.67;2.87;;;;;;;;;;5061810;28;20222;-29
2022/10/05 05:22:25;;;;;;;2.93;2.50;;;;;;;;;;5075074;28;20205;-29
2022/10/05 05:25:01;;;;;;;2.30;2.17;;;;;;;;;;5074113;28;20603;-29
2022/10/05 05:27:38;;;;;;;3.40;2.80;;;;;;;;;;5059437;28;20208;-30
2022/10/05 05:30:20;;;;;;;2.47;2.27;;;;;;;;;;5064767;28;20253;-29
2022/10/05 05:32:51;;;;;;;3.00;2.70;;;;;;;;;;5059101;28;20312;-29
2022/10/05 05:35:29;;;;;;;7.80;2.83;;;;;;;;;;5066177;28;20191;-29
2022/10/05 05:38:03;;;;;;;2.73;2.53;;;;;;;;;;5070154;28;20201;-30
2022/10/05 05:40:33;;;;;;;4.93;2.47;;;;;;;;;;5074386;28;20702;-28
2022/10/05 05:43:02;;;;;;;2.60;2.40;;;;;;;;;;5067380;28;20210;-29
2022/10/05 05:45:33;;;;;;;5.13;2.37;;;;;;;;;;5069893;28;20304;-28
2022/10/05 05:48:00;;;;;;;2.30;2.10;;;;;;;;;;5057970;28;20289;-28
2022/10/05 05:50:45;;;;;;;6.60;2.60;;;;;;;;;;5053644;28;20218;-30
2022/10/05 05:53:15;;;;;;;2.70;2.50;;;;;;;;;;5054347;28;20186;-29
2022/10/05 05:55:43;;;;;;;3.03;2.30;;;;;;;;;;5070023;28;20644;-30
2022/10/05 05:58:14;;;;;;;3.43;2.33;;;;;;;;;;5057547;28;20237;-29
2022/10/05 06:00:43;;;;;;;3.03;2.40;;;;;;;;;;5059860;28;20228;-30
2022/10/05 06:03:13;;;;;;;3.43;2.50;;;;;;;;;;5065047;28;20208;-28
2022/10/05 06:05:45;;;;;;;9.40;2.63;;;;;;;;;;5073873;28;20300;-32
2022/10/05 06:08:16;;;;;;;4.97;2.73;;;;;;;;;;5074036;28;20827;-28
2022/10/05 06:10:46;;;;;;;2.87;2.53;;;;;;;;;;5068444;28;20270;-29
2022/10/05 06:13:17;;;;;;;2.90;2.60;;;;;;;;;;5066124;28;20201;-29
2022/10/05 06:16:06;;;;;;;2.53;2.33;;;;;;;;;;5069891;28;20190;-28
2022/10/05 06:18:33;;;;;;;2.23;2.03;;;;;;;;;;5064766;28;20678;-28
2022/10/05 06:21:03;;;;;;;3.17;2.40;;;;;;;;;;5056929;28;20272;-28
2022/10/05 06:23:35;;;;;;;2.80;2.60;;;;;;;;;;5074308;28;20211;-29
2022/10/05 06:26:10;;;;;;;4.07;3.30;;;;;;;;;;5069019;28;20547;-28
2022/10/05 06:28:37;;;;;;;3.37;2.60;;;;;;;;;;5068648;28;20204;-27
2022/10/05 06:31:09;;;;;;;4.23;3.00;;;;;;;;;;5065039;28;20237;-28
2022/10/05 06:33:46;;;;;;;3.47;2.97;;;;;;;;;;5070781;28;20200;-29
2022/10/05 06:36:20;;;;;;;3.83;3.20;;;;;;;;;;5065211;28;20194;-29
2022/10/05 06:39:02;;;;;;;4.27;3.03;;;;;;;;;;5053417;28;20976;-30
2022/10/05 06:41:35;;;;;;;5.83;3.83;;;;;;;;;;5052396;28;20228;-29
2022/10/05 06:44:08;;;;;;;5.47;3.80;;;;;;;;;;5059049;28;20218;-29
2022/10/05 06:46:39;;;;;;;8.40;4.23;;;;;;;;;;5066617;28;20937;-28
2022/10/05 06:49:16;;;;;;;6.47;4.50;;;;;;;;;;5061997;28;20208;-29
2022/10/05 06:51:48;;;;;;;5.80;4.17;;;;;;;;;;5072385;28;20197;-29
2022/10/05 06:54:23;;;;;;;7.23;4.27;;;;;;;;;;5056280;28;20221;-28
2022/10/05 06:56:56;;;;;;;6.40;3.77;;;;;;;;;;5054095;28;20213;-28
2022/10/05 06:59:29;;;;;;;5.03;3.80;;;;;;;;;;5062513;28;20202;-29
2022/10/05 07:02:00;;;;;;;4.50;3.73;;;;;;;;;;5064816;28;20212;-28
2022/10/05 07:04:40;;;;;;;5.13;4.30;;;;;;;;;;5057102;28;20837;-29
2022/10/05 07:07:11;;;;;;;9.30;4.47;;;;;;;;;;5070634;28;20205;-29
2022/10/05 07:09:42;;;;;;;5.00;3.77;;;;;;;;;;5066290;28;20235;-29
2022/10/05 07:12:30;;;;;;;4.57;3.53;;;;;;;;;;5067466;28;20884;-29
2022/10/05 07:15:04;;;;;;;6.73;4.03;;;;;;;;;;5063101;28;20205;-29
2022/10/05 07:17:41;;;;;;;4.33;3.77;;;;;;;;;;5065870;28;20679;-29
2022/10/05 07:20:11;;;;;;;5.63;4.10;;;;;;;;;;5067643;28;20308;-29
2022/10/05 07:22:46;;;;;;;5.27;3.60;;;;;;;;;;5069354;28;20655;-28
2022/10/05 07:25:16;;;;;;;4.33;3.60;;;;;;;;;;5066310;28;20213;-28
2022/10/05 07:27:47;;;;;;;5.37;4.00;;;;;;;;;;5069131;28;20197;-29
2022/10/05 07:30:15;;;;;;;5.67;3.80;;;;;;;;;;5062242;28;20231;-31
2022/10/05 07:32:46;;;;;;;4.90;3.83;;;;;;;;;;5063808;28;20325;-29
2022/10/05 07:38:04;;;;;;;5.37;4.50;;;;;;;;;;5064151;28;20201;-29
2022/10/05 07:40:38;;;;;;;5.30;4.40;;;;;;;;;;5065309;28;20232;-29
2022/10/05 07:43:14;;;;;;;6.30;4.20;;;;;;;;;;5061021;28;20366;-27
2022/10/05 07:45:45;;;;;;;5.63;4.10;;;;;;;;;;5052967;28;20205;-29
2022/10/05 07:48:15;;;;;;;7.33;4.50;;;;;;;;;;5062840;28;20193;-28
2022/10/05 07:50:47;;;;;;;7.57;4.50;;;;;;;;;;5066976;28;20236;-29
2022/10/05 07:53:19;;;;;;;6.67;4.83;;;;;;;;;;5061112;28;20213;-30
2022/10/05 07:55:51;;;;;;;5.53;4.70;;;;;;;;;;5060650;28;20232;-29
2022/10/05 07:58:22;;;;;;;4.97;4.37;;;;;;;;;;5064153;28;20284;-30
2022/10/05 08:00:59;;;;;;;4.90;4.20;;;;;;;;;;5060654;28;20485;-30
2022/10/05 08:03:30;;;;;;;5.50;3.93;;;;;;;;;;5057936;28;20197;-29
2022/10/05 08:05:58;;;;;;;4.77;4.13;;;;;;;;;;5061154;28;20221;-28
2022/10/05 08:08:30;;;;;;;5.37;4.43;;;;;;;;;;5062354;28;20313;-28
2022/10/05 08:11:14;;;;;;;8.47;4.43;;;;;;;;;;5054018;28;20309;-27
2022/10/05 08:13:46;;;;;;;6.10;4.70;;;;;;;;;;5056086;28;20190;-28
2022/10/05 08:16:13;;;;;;;8.90;4.47;;;;;;;;;;5064711;28;20216;-29
2022/10/05 08:18:50;;;;;;;5.03;4.33;;;;;;;;;;5063003;28;20300;-29
2022/10/05 08:21:20;;;;;;;6.27;5.17;;;;;;;;;;5058702;28;20227;-31
2022/10/05 08:23:52;;;;;;;6.17;5.57;;;;;;;;;;5067192;28;20225;-28
2022/10/05 08:26:24;;;;;;;6.73;4.40;;;;;;;;;;5059078;28;20216;-29
2022/10/05 08:28:57;;;;;;;6.97;5.60;;;;;;;;;;5064055;28;20201;-33
2022/10/05 08:31:27;;;;;;;6.53;5.40;;;;;;;;;;5047375;28;20230;-29
2022/10/05 08:33:57;;;;;;;6.97;6.23;;;;;;;;;;5062126;28;20292;-29
2022/10/05 08:36:29;;;;;;;9.27;6.90;;;;;;;;;;5067964;28;20194;-28
2022/10/05 08:38:59;;;;;;;7.83;6.60;;;;;;;;;;5066719;28;20216;-28
2022/10/05 08:41:41;;;;;;;6.63;5.77;;;;;;;;;;5058881;28;20229;-28
2022/10/05 08:44:26;;;;;;;8.07;6.20;;;;;;;;;;5058674;28;20202;-29
2022/10/05 08:47:14;;;;;;;7.07;6.13;;;;;;;;;;5062293;28;20201;-29
2022/10/05 08:50:07;;;;;;;9.27;6.80;;;;;;;;;;5036845;28;20225;-30
2022/10/05 08:52:38;;;;;;;6.53;5.87;;;;;;;;;;5068965;28;20754;-28
2022/10/05 08:55:23;;;;;;;8.10;6.57;;;;;;;;;;5072294;28;20291;-29
2022/10/05 08:58:06;;;;;;;8.37;7.27;;;;;;;;;;5064508;28;20237;-30
2022/10/05 09:00:39;;;;;;;6.90;5.93;;;;;;;;;;5062609;28;20228;-30
2022/10/05 09:03:14;;;;;;;6.63;5.90;;;;;;;;;;5064781;28;20206;-30
2022/10/05 09:05:57;;;;;;;8.47;6.00;;;;;;;;;;5071536;28;20209;-31
2022/10/05 09:08:31;;;;;;;8.53;6.40;;;;;;;;;;5057458;28;20208;-31
2022/10/05 09:11:07;;;;;;;7.87;5.80;;;;;;;;;;5059961;28;20257;-30
2022/10/05 09:18:58;;;;;;;5.23;4.83;;;;;;;;;;5024608;28;20219;-30
2022/10/05 09:21:35;;;;;;;8.10;5.20;;;;;;;;;;5033349;28;20218;-29
2022/10/05 09:24:10;;;;;;;9.03;5.37;;;;;;;;;;5029599;28;20202;-30
2022/10/05 09:26:44;;;;;;;7.97;5.40;;;;;;;;;;5026979;28;20215;-30
2022/10/05 09:29:32;;;;;;;8.37;5.30;;;;;;;;;;5032754;28;20229;-31
2022/10/05 09:32:08;;;;;;;6.53;5.30;;;;;;;;;;5029532;28;20537;-30
2022/10/05 09:34:45;;;;;;;6.07;4.70;;;;;;;;;;5032355;28;20222;-30
2022/10/05 09:37:24;;;;;;;5.60;4.83;;;;;;;;;;5033272;28;20198;-29
2022/10/05 09:40:13;;;;;;;4.87;4.37;;;;;;;;;;5021630;28;20300;-32
2022/10/05 09:43:00;;;;;;;7.00;4.80;;;;;;;;;;5028781;28;20209;-29
2022/10/05 09:45:37;;;;;;;5.37;4.63;;;;;;;;;;5018413;28;20676;-30
2022/10/05 09:48:26;;;;;;;5.17;4.60;;;;;;;;;;5018848;28;20214;-32
2022/10/05 09:51:10;;;;;;;6.83;4.00;;;;;;;;;;5027770;28;20222;-31
2022/10/05 09:54:10;;;;;;;4.73;4.23;;;;;;;;;;5025769;28;20287;-29
2022/10/05 09:56:58;;;;;;;4.23;3.83;;;;;;;;;;4960765;28;20734;-31
2022/10/05 09:59:45;;;;;;;4.07;3.67;;;;;;;;;;4966985;28;20284;-30
2022/10/05 10:02:28;;;;;;;4.13;3.73;;;;;;;;;;5007649;28;20265;-30
2022/10/05 10:05:09;;;;;;;4.00;3.60;;;;;;;;;;5028623;28;20652;-30
2022/10/05 10:07:49;;;;;;;3.93;3.57;;;;;;;;;;5031266;28;20543;-30
2022/10/05 10:10:30;;;;;;;4.10;3.53;;;;;;;;;;5030383;28;20227;-30
2022/10/05 10:13:06;;;;;;;3.80;3.50;;;;;;;;;;5028732;28;20211;-31
2022/10/05 10:15:42;;;;;;;4.90;3.30;;;;;;;;;;5032600;28;20201;-30
2022/10/05 10:18:23;;;;;;;3.83;3.47;;;;;;;;;;5024145;28;20590;-30
2022/10/05 10:20:56;;;;;;;3.90;3.50;;;;;;;;;;5030901;28;20256;-29
2022/10/05 10:23:28;;;;;;;4.53;3.53;;;;;;;;;;5028201;28;20200;-32
2022/10/05 10:26:04;;;;;;;10.13;3.27;;;;;;;;;;5027001;28;20332;-29
2022/10/05 10:28:48;;;;;;;5.20;3.67;;;;;;;;;;5025703;28;20195;-30
2022/10/05 10:31:29;;;;;;;4.57;3.33;;;;;;;;;;4990534;28;20230;-30
2022/10/05 10:34:05;;;;;;;3.63;3.20;;;;;;;;;;5024657;28;20300;-29
2022/10/05 10:36:45;;;;;;;5.37;2.70;;;;;;;;;;5036369;28;20696;-30
2022/10/05 10:39:14;;;;;;;5.73;2.80;;;;;;;;;;5028115;28;20220;-31
2022/10/05 10:41:51;;;;;;;3.93;3.07;;;;;;;;;;5029138;28;20589;-29
2022/10/05 10:44:41;;;;;;;5.03;3.07;;;;;;;;;;5035187;28;20198;-31
2022/10/05 10:47:23;;;;;;;4.13;3.17;;;;;;;;;;5039307;28;20227;-29
2022/10/05 10:50:05;;;;;;;4.10;2.77;;;;;;;;;;5039862;28;20231;-29
2022/10/05 10:52:44;;;;;;;3.67;2.70;;;;;;;;;;5027889;28;20206;-30
2022/10/05 10:55:22;;;;;;;3.83;2.43;;;;;;;;;;5030613;28;20194;-30
2022/10/05 10:57:56;;;;;;;4.47;2.57;;;;;;;;;;5019568;28;20199;-32
2022/10/05 11:00:24;;;;;;;3.57;2.10;;;;;;;;;;5036789;28;20229;-30
2022/10/05 11:02:59;;;;;;;4.40;2.30;;;;;;;;;;5023553;28;20305;-32
2022/10/05 11:05:32;;;;;;;2.37;2.17;;;;;;;;;;5034785;28;20324;-32
2022/10/05 11:08:17;;;;;;;2.47;2.20;;;;;;;;;;5031554;28;20291;-30
2022/10/05 11:10:54;;;;;;;2.27;2.10;;;;;;;;;;5020919;28;20230;-30
2022/10/05 11:13:28;;;;;;;2.60;2.40;;;;;;;;;;5026599;28;20202;-30
2022/10/05 11:16:06;;;;;;;2.30;2.10;;;;;;;;;;5024174;28;20226;-31
2022/10/05 11:18:46;;;;;;;3.23;2.00;;;;;;;;;;5024292;28;20217;-30
2022/10/05 11:21:33;;;;;;;3.53;2.10;;;;;;;;;;5042200;28;20470;-31
2022/10/05 11:24:15;;;;;;;2.20;2.07;;;;;;;;;;5017296;28;20199;-30
2022/10/05 11:26:55;;;;;;;2.43;2.27;;;;;;;;;;5022308;28;20225;-31
2022/10/05 11:29:30;;;;;;;2.43;2.30;;;;;;;;;;5022690;28;20265;-30
2022/10/05 11:32:12;;;;;;;2.20;2.00;;;;;;;;;;5023095;28;20304;-31
2022/10/05 11:34:53;;;;;;;1.97;1.87;;;;;;;;;;5025680;28;20210;-32
2022/10/05 11:37:36;;;;;;;6.20;2.07;;;;;;;;;;5025854;28;20199;-29
2022/10/05 11:40:22;;;;;;;3.57;2.30;;;;;;;;;;5030418;28;20230;-29
2022/10/05 11:43:13;;;;;;;4.17;1.97;;;;;;;;;;5026911;28;20217;-29
2022/10/05 11:45:52;;;;;;;4.50;2.10;;;;;;;;;;5023334;28;20221;-30
2022/10/05 11:48:26;;;;;;;2.33;2.13;;;;;;;;;;5030403;28;20201;-30
2022/10/05 11:51:09;;;;;;;1.90;1.80;;;;;;;;;;5035058;28;20309;-29
2022/10/05 11:53:39;;;;;;;2.17;1.97;;;;;;;;;;5030619;28;20208;-31
2022/10/05 11:56:14;;;;;;;1.93;1.73;;;;;;;;;;5028194;28;20203;-29
2022/10/05 11:58:43;;;;;;;2.90;1.90;;;;;;;;;;5032884;28;20209;-30
2022/10/05 12:01:17;;;;;;;2.47;2.10;;;;;;;;;;5033139;28;20711;-30
2022/10/05 12:03:51;;;;;;;2.00;1.90;;;;;;;;;;5023652;28;20198;-30
2022/10/05 12:06:25;;;;;;;2.97;1.97;;;;;;;;;;5032107;28;20301;-31
2022/10/05 12:09:03;;;;;;;1.90;1.70;;;;;;;;;;5032223;28;20213;-30
2022/10/05 12:11:38;;;;;;;2.03;1.83;;;;;;;;;;5029704;28;20246;-29
2022/10/05 12:14:07;;;;;;;1.60;1.50;;;;;;;;;;5033011;28;20242;-32
2022/10/05 12:16:40;;;;;;;5.13;1.90;;;;;;;;;;5038492;28;20249;-30
2022/10/05 12:19:12;;;;;;;2.63;1.57;;;;;;;;;;5028516;28;20257;-32
2022/10/05 12:21:42;;;;;;;3.07;1.70;;;;;;;;;;5031043;28;20206;-29
2022/10/05 12:24:14;;;;;;;1.80;1.70;;;;;;;;;;5030558;28;20210;-31
2022/10/05 12:26:45;;;;;;;3.67;1.73;;;;;;;;;;5033641;28;20289;-29
2022/10/05 12:29:16;;;;;;;3.20;1.60;;;;;;;;;;5038954;28;20203;-32
2022/10/05 12:31:51;;;;;;;4.07;1.80;;;;;;;;;;5027154;28;20207;-31
2022/10/05 12:34:23;;;;;;;2.63;1.97;;;;;;;;;;5030632;28;20288;-32
2022/10/05 12:36:52;;;;;;;1.80;1.70;;;;;;;;;;5047639;28;20202;-31
2022/10/05 12:39:23;;;;;;;1.93;1.67;;;;;;;;;;5056817;28;20220;-31
2022/10/05 12:41:55;;;;;;;1.90;1.80;;;;;;;;;;5042247;28;20210;-31
2022/10/05 12:44:30;;;;;;;1.97;1.40;;;;;;;;;;5031995;28;20198;-33
2022/10/05 12:47:05;;;;;;;2.20;1.90;;;;;;;;;;5032156;28;20261;-32
2022/10/05 12:49:37;;;;;;;3.20;1.70;;;;;;;;;;5024846;28;20342;-32
2022/10/05 12:52:05;;;;;;;2.33;1.77;;;;;;;;;;5044895;28;20729;-31
2022/10/05 12:54:39;;;;;;;2.83;1.43;;;;;;;;;;5038004;28;20202;-31
2022/10/05 12:57:13;;;;;;;3.23;1.83;;;;;;;;;;5027283;28;20205;-31
2022/10/05 12:59:43;;;;;;;3.30;1.90;;;;;;;;;;5039787;28;20226;-31
2022/10/05 13:02:17;;;;;;;1.77;1.67;;;;;;;;;;5043299;28;20213;-31
2022/10/05 13:04:49;;;;;;;2.23;1.50;;;;;;;;;;5029757;28;20296;-29
2022/10/05 13:07:32;;;;;;;1.93;1.77;;;;;;;;;;5033119;28;20226;-30
2022/10/05 13:10:03;;;;;;;2.77;1.77;;;;;;;;;;5031842;28;20233;-30
2022/10/05 13:12:37;;;;;;;3.17;1.80;;;;;;;;;;5026293;28;20202;-31
2022/10/05 13:15:07;;;;;;;2.00;1.80;;;;;;;;;;5034602;28;20205;-30
2022/10/05 13:17:40;;;;;;;2.43;1.63;;;;;;;;;;5025428;28;20211;-32
2022/10/05 13:20:11;;;;;;;1.60;1.50;;;;;;;;;;5032940;28;20227;-31
2022/10/05 13:22:41;;;;;;;1.50;1.40;;;;;;;;;;5053953;28;20234;-31
2022/10/05 13:25:16;;;;;;;2.53;1.90;;;;;;;;;;5032729;28;20218;-32
2022/10/05 13:27:45;;;;;;;2.13;1.73;;;;;;;;;;5033707;28;20217;-32
2022/10/05 13:30:14;;;;;;;2.17;1.50;;;;;;;;;;5040597;28;20223;-32
2022/10/05 13:32:46;;;;;;;2.20;1.80;;;;;;;;;;5025992;28;20289;-30
2022/10/05 13:35:25;;;;;;;2.00;1.80;;;;;;;;;;5039299;28;20257;-31
2022/10/05 13:38:00;;;;;;;1.60;1.50;;;;;;;;;;5048172;28;20202;-31
2022/10/05 13:40:32;;;;;;;3.83;1.80;;;;;;;;;;5039388;28;20222;-31
2022/10/05 13:43:02;;;;;;;1.73;1.20;;;;;;;;;;5030617;28;20203;-31
2022/10/05 13:45:34;;;;;;;2.07;1.80;;;;;;;;;;5028911;28;20239;-32
2022/10/05 13:48:09;;;;;;;2.07;1.80;;;;;;;;;;5030047;28;20265;-33
2022/10/05 13:50:42;;;;;;;2.27;1.57;;;;;;;;;;5033725;28;20222;-31
2022/10/05 13:53:14;;;;;;;2.20;1.77;;;;;;;;;;5036341;28;20194;-30
2022/10/05 13:55:44;;;;;;;1.63;1.53;;;;;;;;;;5032634;28;20191;-31
2022/10/05 13:58:16;;;;;;;1.83;1.50;;;;;;;;;;5023738;28;20214;-31
2022/10/05 14:00:47;;;;;;;2.20;1.93;;;;;;;;;;5042940;28;20218;-30
2022/10/05 14:03:31;;;;;;;1.20;1.20;;;;;;;;;;5026285;28;20205;-30
2022/10/05 14:06:00;;;;;;;1.30;1.30;;;;;;;;;;5024005;28;20503;-30
2022/10/05 14:08:28;;;;;;;1.73;1.53;;;;;;;;;;5030940;28;20210;-30
2022/10/05 14:10:55;;;;;;;2.90;1.10;;;;;;;;;;5039411;28;20218;-30
2022/10/05 14:13:26;;;;;;;1.03;1.03;;;;;;;;;;5029545;28;20215;-31
2022/10/05 14:15:58;;;;;;;1.60;1.00;;;;;;;;;;5032491;28;20301;-30
2022/10/05 14:18:26;;;;;;;1.40;1.30;;;;;;;;;;5034524;28;20210;-32
2022/10/05 14:21:04;;;;;;;1.00;1.00;;;;;;;;;;5038205;28;20226;-30
2022/10/05 14:23:31;;;;;;;1.00;1.00;;;;;;;;;;5026648;28;20289;-30
2022/10/05 14:25:59;;;;;;;1.00;1.00;;;;;;;;;;5030771;28;20585;-30
2022/10/05 14:28:28;;;;;;;2.13;0.97;;;;;;;;;;5017414;28;20561;-31
2022/10/05 14:30:58;;;;;;;1.03;0.83;;;;;;;;;;5044918;28;20222;-31
2022/10/05 14:33:26;;;;;;;6.57;1.20;;;;;;;;;;5034619;28;20209;-32
2022/10/05 14:35:55;;;;;;;0.73;0.73;;;;;;;;;;5035650;28;20212;-31
2022/10/05 14:38:24;;;;;;;0.70;0.60;;;;;;;;;;5050609;28;20881;-30
2022/10/05 14:41:05;;;;;;;0.50;0.50;;;;;;;;;;5031386;28;20231;-31
2022/10/05 14:43:33;;;;;;;0.73;0.60;;;;;;;;;;5037921;28;20201;-31
2022/10/05 14:46:01;;;;;;;2.00;0.60;;;;;;;;;;5050165;28;20205;-32
2022/10/05 14:48:29;;;;;;;4.53;1.17;;;;;;;;;;5031510;28;20226;-29
2022/10/05 14:50:58;;;;;;;0.63;0.50;;;;;;;;;;5045750;28;20218;-30
2022/10/05 14:53:37;;;;;;;0.77;0.70;;;;;;;;;;5030671;28;20218;-31
2022/10/05 14:56:12;;;;;;;2.23;0.50;;;;;;;;;;5025819;28;20202;-31
2022/10/05 14:58:48;;;;;;;1.40;0.50;;;;;;;;;;5036316;28;20202;-31
2022/10/05 15:01:22;;;;;;;0.70;0.60;;;;;;;;;;5049893;28;20227;-30
2022/10/05 15:03:55;;;;;;;0.70;0.70;;;;;;;;;;5024204;28;20211;-31
2022/10/05 15:06:26;;;;;;;1.67;0.67;;;;;;;;;;5022418;28;20345;-31
2022/10/05 15:09:04;;;;;;;0.70;0.70;;;;;;;;;;5030531;28;20293;-29
2022/10/05 15:11:36;;;;;;;0.67;0.67;;;;;;;;;;5025416;28;20225;-29
2022/10/05 15:14:06;;;;;;;0.63;0.50;;;;;;;;;;5037056;28;20668;-31
2022/10/05 15:16:34;;;;;;;2.27;0.70;;;;;;;;;;5035694;28;20325;-31
2022/10/05 15:19:04;;;;;;;1.97;0.70;;;;;;;;;;5032390;28;20208;-30
2022/10/05 15:21:39;;;;;;;1.60;0.67;;;;;;;;;;5023416;28;20230;-31
2022/10/05 15:24:12;;;;;;;0.67;0.60;;;;;;;;;;5028204;28;20222;-30
2022/10/05 15:26:46;;;;;;;0.60;0.60;;;;;;;;;;5030735;28;20337;-32
2022/10/05 15:29:20;;;;;;;0.50;0.50;;;;;;;;;;5025350;28;20206;-30
2022/10/05 15:31:51;;;;;;;1.77;0.57;;;;;;;;;;5023467;28;20225;-32
2022/10/05 15:34:21;;;;;;;0.70;0.53;;;;;;;;;;5027511;28;20234;-31
2022/10/05 15:36:52;;;;;;;1.83;0.50;;;;;;;;;;5028032;28;20221;-30
2022/10/05 15:39:26;;;;;;;1.50;0.70;;;;;;;;;;5026863;28;20202;-31
2022/10/05 15:42:01;;;;;;;3.37;0.60;;;;;;;;;;5021049;28;20214;-32